sensor_id;sensor_type;location;lat;lon;timestamp;pressure;altitude;pressure_sealevel;temperature;humidity
56414;BME280;42318;48.452;19.526;2023-03-01T00:07:10;99311.47;;;19.78;47.38
56414;BME280;42318;48.452;19.526;2023-03-01T00:14:41;99306.03;;;19.78;47.21
56414;BME280;42318;48.452;19.526;2023-03-01T00:22:12;99306.38;;;19.82;46.73
56414;BME280;42318;48.452;19.526;2023-03-01T00:29:43;99296.34;;;19.82;46.76
56414;BME280;42318;48.452;19.526;2023-03-01T00:37:13;99286.75;;;19.80;46.80
56414;BME280;42318;48.452;19.526;2023-03-01T00:44:44;99274.44;;;19.77;46.91
56414;BME280;42318;48.452;19.526;2023-03-01T00:52:15;99258.38;;;19.75;46.61
56414;BME280;42318;48.452;19.526;2023-03-01T00:59:46;99265.00;;;19.80;46.75
56414;BME280;42318;48.452;19.526;2023-03-01T01:07:17;99267.84;;;19.73;46.36
56414;BME280;42318;48.452;19.526;2023-03-01T01:14:48;99239.09;;;19.65;46.42
56414;BME280;42318;48.452;19.526;2023-03-01T01:22:18;99228.81;;;19.67;46.71
56414;BME280;42318;48.452;19.526;2023-03-01T01:29:49;99218.78;;;19.68;46.39
56414;BME280;42318;48.452;19.526;2023-03-01T01:37:20;99208.25;;;19.71;46.06
56414;BME280;42318;48.452;19.526;2023-03-01T01:52:59;99197.84;;;19.68;46.12
56414;BME280;42318;48.452;19.526;2023-03-01T02:00:30;99205.53;;;19.71;46.19
56414;BME280;42318;48.452;19.526;2023-03-01T02:08:01;99193.34;;;19.74;46.12
56414;BME280;42318;48.452;19.526;2023-03-01T02:15:34;99192.06;;;19.76;46.11
56414;BME280;42318;48.452;19.526;2023-03-01T02:23:05;99191.09;;;19.71;46.00
56414;BME280;42318;48.452;19.526;2023-03-01T02:30:36;99203.28;;;19.68;46.02
56414;BME280;42318;48.452;19.526;2023-03-01T02:38:08;99204.22;;;19.74;45.91
56414;BME280;42318;48.452;19.526;2023-03-01T02:45:47;99193.84;;;19.71;45.80
56414;BME280;42318;48.452;19.526;2023-03-01T02:53:23;99195.59;;;19.77;45.72
56414;BME280;42318;48.452;19.526;2023-03-01T03:00:56;99195.84;;;19.75;45.63
56414;BME280;42318;48.452;19.526;2023-03-01T03:08:27;99196.78;;;19.69;46.12
56414;BME280;42318;48.452;19.526;2023-03-01T03:15:57;99189.09;;;19.66;46.01
56414;BME280;42318;48.452;19.526;2023-03-01T03:23:28;99189.69;;;19.68;46.14
56414;BME280;42318;48.452;19.526;2023-03-01T03:31:00;99180.25;;;19.71;45.68
56414;BME280;42318;48.452;19.526;2023-03-01T03:38:34;99179.06;;;19.67;45.97
56414;BME280;42318;48.452;19.526;2023-03-01T03:46:06;99191.69;;;19.73;46.01
56414;BME280;42318;48.452;19.526;2023-03-01T03:53:37;99183.78;;;19.71;45.69
56414;BME280;42318;48.452;19.526;2023-03-01T04:01:08;99184.84;;;19.70;46.04
56414;BME280;42318;48.452;19.526;2023-03-01T04:08:39;99203.06;;;19.70;45.59
56414;BME280;42318;48.452;19.526;2023-03-01T04:16:11;99217.59;;;19.75;45.45
56414;BME280;42318;48.452;19.526;2023-03-01T04:23:41;99222.44;;;19.73;45.78
56414;BME280;42318;48.452;19.526;2023-03-01T04:31:15;99222.44;;;19.73;45.83
56414;BME280;42318;48.452;19.526;2023-03-01T04:38:48;99206.13;;;19.73;45.56
56414;BME280;42318;48.452;19.526;2023-03-01T04:46:20;99194.19;;;19.74;45.34
56414;BME280;42318;48.452;19.526;2023-03-01T04:53:52;99180.72;;;19.68;45.75
56414;BME280;42318;48.452;19.526;2023-03-01T05:01:23;99182.84;;;19.66;45.74
56414;BME280;42318;48.452;19.526;2023-03-01T05:08:54;99173.38;;;19.68;45.75
56414;BME280;42318;48.452;19.526;2023-03-01T05:16:24;99173.50;;;19.62;45.58
56414;BME280;42318;48.452;19.526;2023-03-01T05:23:55;99177.63;;;19.64;45.55
56414;BME280;42318;48.452;19.526;2023-03-01T05:31:26;99180.94;;;19.66;45.49
56414;BME280;42318;48.452;19.526;2023-03-01T05:38:57;99185.31;;;19.67;45.45
56414;BME280;42318;48.452;19.526;2023-03-01T05:46:28;99179.41;;;19.70;45.30
56414;BME280;42318;48.452;19.526;2023-03-01T05:53:59;99182.59;;;19.67;45.42
56414;BME280;42318;48.452;19.526;2023-03-01T06:01:31;99182.00;;;19.65;45.40
56414;BME280;42318;48.452;19.526;2023-03-01T06:09:04;99183.66;;;19.66;45.45
56414;BME280;42318;48.452;19.526;2023-03-01T06:16:34;99184.84;;;19.59;45.73
56414;BME280;42318;48.452;19.526;2023-03-01T06:24:05;99182.00;;;19.65;45.69
56414;BME280;42318;48.452;19.526;2023-03-01T06:31:37;99185.09;;;19.69;45.31
56414;BME280;42318;48.452;19.526;2023-03-01T06:39:08;99189.94;;;19.67;45.53
56414;BME280;42318;48.452;19.526;2023-03-01T06:46:39;99172.44;;;19.63;45.34
56414;BME280;42318;48.452;19.526;2023-03-01T06:54:10;99176.94;;;19.69;45.26
56414;BME280;42318;48.452;19.526;2023-03-01T07:01:41;99184.25;;;19.68;45.13
56414;BME280;42318;48.452;19.526;2023-03-01T07:09:12;99179.88;;;19.67;45.32
56414;BME280;42318;48.452;19.526;2023-03-01T07:16:43;99180.72;;;19.68;45.45
56414;BME280;42318;48.452;19.526;2023-03-01T07:24:14;99187.22;;;19.67;45.52
56414;BME280;42318;48.452;19.526;2023-03-01T07:31:45;99186.16;;;19.68;45.93
56414;BME280;42318;48.452;19.526;2023-03-01T07:39:16;99181.78;;;19.67;45.83
56414;BME280;42318;48.452;19.526;2023-03-01T07:46:46;99178.81;;;19.68;45.49
56414;BME280;42318;48.452;19.526;2023-03-01T07:54:17;99178.81;;;19.68;45.73
56414;BME280;42318;48.452;19.526;2023-03-01T08:01:48;99175.38;;;19.73;45.51
56414;BME280;42318;48.452;19.526;2023-03-01T08:09:19;99181.41;;;19.75;45.68
56414;BME280;42318;48.452;19.526;2023-03-01T08:16:50;99161.19;;;19.83;45.70
56414;BME280;42318;48.452;19.526;2023-03-01T08:24:21;99172.06;;;19.83;45.54
56414;BME280;42318;48.452;19.526;2023-03-01T08:31:51;99159.44;;;19.65;46.32
56414;BME280;42318;48.452;19.526;2023-03-01T08:39:22;99161.22;;;19.59;46.66
56414;BME280;42318;48.452;19.526;2023-03-01T08:46:53;99156.13;;;19.63;46.52
56414;BME280;42318;48.452;19.526;2023-03-01T08:54:25;99164.88;;;19.65;46.55
56414;BME280;42318;48.452;19.526;2023-03-01T09:01:56;99157.56;;;19.54;46.73
56414;BME280;42318;48.452;19.526;2023-03-01T09:09:27;99160.38;;;19.59;46.91
56414;BME280;42318;48.452;19.526;2023-03-01T09:16:58;99152.09;;;19.65;46.90
56414;BME280;42318;48.452;19.526;2023-03-01T09:24:29;99146.25;;;19.50;47.32
56414;BME280;42318;48.452;19.526;2023-03-01T09:31:59;99143.06;;;19.41;47.27
56414;BME280;42318;48.452;19.526;2023-03-01T09:39:31;99145.56;;;19.43;47.55
56414;BME280;42318;48.452;19.526;2023-03-01T09:47:02;99142.59;;;19.44;47.83
56414;BME280;42318;48.452;19.526;2023-03-01T09:54:33;99106.69;;;19.42;47.38
56414;BME280;42318;48.452;19.526;2023-03-01T10:09:45;99107.91;;;19.58;47.06
56414;BME280;42318;48.452;19.526;2023-03-01T10:25:05;99072.06;;;19.73;46.74
56414;BME280;42318;48.452;19.526;2023-03-01T10:32:36;99048.72;;;20.00;46.57
56414;BME280;42318;48.452;19.526;2023-03-01T10:40:08;99033.72;;;19.98;46.81
56414;BME280;42318;48.452;19.526;2023-03-01T10:47:39;99024.34;;;19.94;46.63
56414;BME280;42318;48.452;19.526;2023-03-01T11:02:49;99004.22;;;20.06;46.53
56414;BME280;42318;48.452;19.526;2023-03-01T11:10:23;98974.88;;;20.08;46.47
56414;BME280;42318;48.452;19.526;2023-03-01T11:17:56;98966.81;;;20.30;45.90
56414;BME280;42318;48.452;19.526;2023-03-01T11:25:37;98941.88;;;20.50;45.70
56414;BME280;42318;48.452;19.526;2023-03-01T11:33:31;98923.00;;;20.44;45.66
56414;BME280;42318;48.452;19.526;2023-03-01T11:56:38;98895.88;;;20.37;46.50
56414;BME280;42318;48.452;19.526;2023-03-01T12:50:18;98847.88;;;20.43;46.77
56414;BME280;42318;48.452;19.526;2023-03-01T12:58:01;98828.81;;;20.43;46.55
56414;BME280;42318;48.452;19.526;2023-03-01T13:13:21;98819.00;;;20.42;46.85
56414;BME280;42318;48.452;19.526;2023-03-01T13:20:55;98819.38;;;20.33;47.20
56414;BME280;42318;48.452;19.526;2023-03-01T13:36:04;98811.13;;;20.28;47.42
56414;BME280;42318;48.452;19.526;2023-03-01T13:43:39;98813.13;;;20.50;47.28
56414;BME280;42318;48.452;19.526;2023-03-01T13:51:11;98817.06;;;20.59;47.20
56414;BME280;42318;48.452;19.526;2023-03-01T13:58:55;98810.59;;;20.65;46.94
56414;BME280;42318;48.452;19.526;2023-03-01T14:06:30;98812.94;;;20.78;46.47
56414;BME280;42318;48.452;19.526;2023-03-01T14:14:23;98805.78;;;20.72;46.63
56414;BME280;42318;48.452;19.526;2023-03-01T14:29:44;98802.38;;;20.60;46.99
56414;BME280;42318;48.452;19.526;2023-03-01T14:45:00;98797.28;;;20.47;47.98
56414;BME280;42318;48.452;19.526;2023-03-01T14:52:35;98812.13;;;20.39;48.45
56414;BME280;42318;48.452;19.526;2023-03-01T15:00:07;98807.16;;;20.36;48.97
56414;BME280;42318;48.452;19.526;2023-03-01T15:07:40;98818.41;;;20.23;50.10
56414;BME280;42318;48.452;19.526;2023-03-01T15:15:32;98809.00;;;20.14;50.83
56414;BME280;42318;48.452;19.526;2023-03-01T15:23:03;98815.44;;;20.07;51.09
56414;BME280;42318;48.452;19.526;2023-03-01T15:30:35;98801.53;;;20.04;51.30
56414;BME280;42318;48.452;19.526;2023-03-01T15:38:26;98805.88;;;20.05;51.16
56414;BME280;42318;48.452;19.526;2023-03-01T15:45:58;98801.78;;;20.02;50.82
56414;BME280;42318;48.452;19.526;2023-03-01T15:53:29;98798.53;;;20.22;50.42
56414;BME280;42318;48.452;19.526;2023-03-01T16:01:00;98795.44;;;20.35;50.14
56414;BME280;42318;48.452;19.526;2023-03-01T16:08:31;98793.53;;;20.36;49.92
56414;BME280;42318;48.452;19.526;2023-03-01T16:16:02;98784.09;;;20.38;49.93
56414;BME280;42318;48.452;19.526;2023-03-01T16:23:33;98795.06;;;20.44;49.75
56414;BME280;42318;48.452;19.526;2023-03-01T16:31:03;98790.47;;;20.44;49.31
56414;BME280;42318;48.452;19.526;2023-03-01T16:38:35;98800.28;;;20.45;49.38
56414;BME280;42318;48.452;19.526;2023-03-01T16:46:23;98804.69;;;20.51;49.16
56414;BME280;42318;48.452;19.526;2023-03-01T16:53:55;98809.38;;;20.56;49.66
56414;BME280;42318;48.452;19.526;2023-03-01T17:01:26;98808.00;;;20.53;49.75
56414;BME280;42318;48.452;19.526;2023-03-01T17:08:56;98812.44;;;20.59;49.47
56414;BME280;42318;48.452;19.526;2023-03-01T17:16:27;98808.94;;;20.64;49.24
56414;BME280;42318;48.452;19.526;2023-03-01T17:23:58;98809.47;;;20.61;48.95
56414;BME280;42318;48.452;19.526;2023-03-01T17:31:31;98821.00;;;20.68;48.63
56414;BME280;42318;48.452;19.526;2023-03-01T17:39:02;98830.81;;;20.69;48.68
56414;BME280;42318;48.452;19.526;2023-03-01T17:46:33;98832.44;;;20.70;48.42
56414;BME280;42318;48.452;19.526;2023-03-01T17:54:04;98835.66;;;20.67;48.33
56414;BME280;42318;48.452;19.526;2023-03-01T18:01:35;98844.91;;;20.66;48.56
56414;BME280;42318;48.452;19.526;2023-03-01T18:09:07;98851.69;;;20.63;48.44
56414;BME280;42318;48.452;19.526;2023-03-01T18:16:37;98854.97;;;20.65;48.25
56414;BME280;42318;48.452;19.526;2023-03-01T18:24:09;98859.28;;;20.61;48.28
56414;BME280;42318;48.452;19.526;2023-03-01T18:31:40;98863.25;;;20.54;48.60
56414;BME280;42318;48.452;19.526;2023-03-01T18:39:10;98868.72;;;20.54;48.42
56414;BME280;42318;48.452;19.526;2023-03-01T18:46:42;98876.31;;;20.52;47.92
56414;BME280;42318;48.452;19.526;2023-03-01T18:54:15;98874.72;;;20.56;48.52
56414;BME280;42318;48.452;19.526;2023-03-01T19:01:46;98874.72;;;20.56;49.65
56414;BME280;42318;48.452;19.526;2023-03-01T19:09:17;98880.75;;;20.58;50.34
56414;BME280;42318;48.452;19.526;2023-03-01T19:16:48;98874.16;;;20.54;50.01
56414;BME280;42318;48.452;19.526;2023-03-01T19:24:18;98885.94;;;20.59;49.81
56414;BME280;42318;48.452;19.526;2023-03-01T19:31:49;98887.41;;;20.67;49.73
56414;BME280;42318;48.452;19.526;2023-03-01T19:39:20;98876.75;;;20.65;50.13
56414;BME280;42318;48.452;19.526;2023-03-01T19:46:52;98871.91;;;20.67;49.67
56414;BME280;42318;48.452;19.526;2023-03-01T19:54:23;98876.84;;;20.70;49.63
56414;BME280;42318;48.452;19.526;2023-03-01T20:01:54;98892.03;;;20.66;49.46
56414;BME280;42318;48.452;19.526;2023-03-01T20:09:25;98890.88;;;20.62;49.39
56414;BME280;42318;48.452;19.526;2023-03-01T20:16:56;98890.56;;;20.59;49.18
56414;BME280;42318;48.452;19.526;2023-03-01T20:24:27;98899.63;;;20.64;48.75
56414;BME280;42318;48.452;19.526;2023-03-01T20:31:57;98899.06;;;20.62;48.76
56414;BME280;42318;48.452;19.526;2023-03-01T20:39:28;98905.31;;;20.63;48.62
56414;BME280;42318;48.452;19.526;2023-03-01T20:46:59;98907.22;;;20.62;48.54
56414;BME280;42318;48.452;19.526;2023-03-01T20:54:30;98906.97;;;20.64;48.48
56414;BME280;42318;48.452;19.526;2023-03-01T21:02:01;98889.75;;;20.58;48.79
56414;BME280;42318;48.452;19.526;2023-03-01T21:09:32;98890.06;;;20.62;48.45
56414;BME280;42318;48.452;19.526;2023-03-01T21:17:03;98894.59;;;20.56;48.69
56414;BME280;42318;48.452;19.526;2023-03-01T21:24:33;98887.34;;;20.62;48.55
56414;BME280;42318;48.452;19.526;2023-03-01T21:32:05;98890.31;;;20.60;48.24
56414;BME280;42318;48.452;19.526;2023-03-01T21:39:37;98891.63;;;20.58;48.43
56414;BME280;42318;48.452;19.526;2023-03-01T21:47:07;98883.22;;;20.59;48.36
56414;BME280;42318;48.452;19.526;2023-03-01T21:54:39;98881.31;;;20.60;47.69
56414;BME280;42318;48.452;19.526;2023-03-01T22:02:11;98869.41;;;20.66;47.94
56414;BME280;42318;48.452;19.526;2023-03-01T22:09:43;98875.06;;;20.59;47.64
56414;BME280;42318;48.452;19.526;2023-03-01T22:17:14;98877.19;;;20.57;47.79
56414;BME280;42318;48.452;19.526;2023-03-01T22:24:45;98875.06;;;20.59;48.00
56414;BME280;42318;48.452;19.526;2023-03-01T22:32:16;98889.56;;;20.65;47.79
56414;BME280;42318;48.452;19.526;2023-03-01T22:39:47;98878.84;;;20.58;48.75
56414;BME280;42318;48.452;19.526;2023-03-01T22:47:17;98876.31;;;20.52;47.87
56414;BME280;42318;48.452;19.526;2023-03-01T22:54:52;98871.94;;;20.51;47.82
56414;BME280;42318;48.452;19.526;2023-03-01T23:02:24;98880.03;;;20.46;48.03
56414;BME280;42318;48.452;19.526;2023-03-01T23:09:54;98878.38;;;20.45;48.15
56414;BME280;42318;48.452;19.526;2023-03-01T23:17:26;98878.44;;;20.50;47.60
56414;BME280;42318;48.452;19.526;2023-03-01T23:24:57;98872.44;;;20.48;47.61
56414;BME280;42318;48.452;19.526;2023-03-01T23:32:28;98874.59;;;20.46;47.65
56414;BME280;42318;48.452;19.526;2023-03-01T23:39:59;98864.84;;;20.50;47.38
56414;BME280;42318;48.452;19.526;2023-03-01T23:47:29;98859.06;;;20.46;47.29
56414;BME280;42318;48.452;19.526;2023-03-01T23:55:00;98860.47;;;20.49;47.27
